British Tradition — 2ICJ5 — position and weather

sailwx.info

Track history (hours):
 
Tides and Currents Weather Stations Pressure Air Temp Water Temp Dewpoint Dewpoint Depression Visibility Wind Speed Wind Dir Waves Ship Positions

British Tradition

Last reported at 2018-Jul-18 05:13 UTC. Time now 2018-Jul-20 14:30 UTC.
Position N 55°52' W 006°59'.

Length 274 m; draft 9.8 m.

Type: Ship. MMSI: 235108541.

Date/timePositionNaut miles runAvg speedWind from/ knotsBaromVisibWave heightAir tempDewpointWater temp
2018-Jul-18 05:13N 55°52' W 006°59'313.9
2018-Jul-18 05:00N 55°50' W 006°56'714.2
2018-Jul-18 04:30N 55°45' W 006°47'815.1
2018-Jul-18 04:00N 55°40' W 006°37'714.4
2018-Jul-18 03:30N 55°35' W 006°27'613.2
2018-Jul-18 03:00N 55°30' W 006°20'611.6
2018-Jul-18 02:30N 55°26' W 006°12'611.3
2018-Jul-18 02:00N 55°25' W 006°03'510.5
2018-Jul-18 01:30N 55°20' W 005°57'5 9.3
2018-Jul-18 01:00N 55°17' W 005°53'4 9.0
2018-Jul-18 00:30N 55°13' W 005°48'5 9.8
2018-Jul-18 00:00N 55°09' W 005°43'510.2
2018-Jul-17 23:30N 55°05' W 005°38'610.4
2018-Jul-17 22:57N 55°00' W 005°32'510.6
2018-Jul-17 22:30N 54°56' W 005°27'510.9
2018-Jul-17 22:00N 54°52' W 005°22'611.1
2018-Jul-17 21:30N 54°47' W 005°16'611.5
2018-Jul-17 21:00N 54°42' W 005°14'612.2
2018-Jul-17 20:30N 54°36' W 005°12'612.2
2018-Jul-17 20:00N 54°30' W 005°08'612.1
2018-Jul-17 19:30N 54°24' W 005°06'612.7
2018-Jul-17 19:00N 54°18' W 005°03'612.9
2018-Jul-17 18:30N 54°12' W 005°00'713.1
2018-Jul-17 18:00N 54°05' W 004°57'713.9
2018-Jul-17 17:29N 53°59' W 004°51'2413.1
2018-Jul-17 15:39N 53°46' W 004°16'512.7
2018-Jul-17 15:15N 53°44' W 004°09'1012.3
2018-Jul-17 14:26N 53°38' W 003°54'511.6
2018-Jul-17 13:59N 53°36' W 003°47'510.3
2018-Jul-17 13:30N 53°33' W 003°39'510.4
2018-Jul-17 13:00N 53°33' W 003°31'510.3
2018-Jul-17 12:30N 53°33' W 003°22'3 6.2
2018-Jul-17 12:00N 53°32' W 003°17'4 7.8
2018-Jul-17 11:30N 53°32' W 003°11'4 8.7
2018-Jul-17 11:00N 53°29' W 003°05'5 9.9
2018-Jul-17 10:30N 53°25' W 003°00'2 3.5
2018-Jul-17 09:58N 53°23' W 003°00'0 0.0
2018-Jul-17 09:28N 53°23' W 003°00'0 0.0
2018-Jul-17 08:58N 53°23' W 003°00'0 0.0
2018-Jul-17 08:22N 53°23' W 003°00'0 0.0
2018-Jul-17 07:56N 53°23' W 003°00'0 0.0
2018-Jul-17 07:28N 53°23' W 003°00'0 0.0
2018-Jul-17 06:58N 53°23' W 003°00'0 0.0
2018-Jul-17 06:28N 53°23' W 003°00'0 0.0
2018-Jul-17 05:58N 53°23' W 003°00'0 0.0
2018-Jul-17 05:28N 53°23' W 003°00'0 0.0
2018-Jul-17 04:59N 53°23' W 003°00'0 0.0
2018-Jul-17 04:29N 53°23' W 003°00'0 0.0
2018-Jul-17 03:59N 53°23' W 003°00'0 0.0
2018-Jul-17 03:29N 53°23' W 003°00'0 0.0
2018-Jul-17 02:59N 53°23' W 003°00'0 0.0
2018-Jul-17 02:29N 53°23' W 003°00'0 0.0
2018-Jul-17 01:53N 53°23' W 003°00'0 0.0
2018-Jul-17 01:29N 53°23' W 003°00'0 0.0
2018-Jul-17 00:56N 53°23' W 003°00'0 0.0
2018-Jul-17 00:29N 53°23' W 003°00'0 0.0
2018-Jul-16 23:29N 53°23' W 003°00'0 0.0
2018-Jul-16 22:59N 53°23' W 003°00'0 0.0
2018-Jul-16 22:29N 53°23' W 003°00'0 0.0
2018-Jul-16 21:59N 53°23' W 003°00'0 0.0
2018-Jul-16 21:29N 53°23' W 003°00'0 0.0
2018-Jul-16 20:59N 53°23' W 003°00'0 0.0
2018-Jul-16 20:29N 53°23' W 003°00'0 0.0
2018-Jul-16 19:59N 53°23' W 003°00'0 0.0
2018-Jul-16 19:29N 53°23' W 003°00'0 0.0
2018-Jul-16 18:59N 53°23' W 003°00'0 0.0
2018-Jul-16 18:29N 53°23' W 003°00'0 0.0
2018-Jul-16 17:59N 53°23' W 003°00'0 0.0
2018-Jul-16 17:29N 53°23' W 003°00'0 0.0
2018-Jul-16 16:59N 53°23' W 003°00'0 0.0
2018-Jul-16 16:29N 53°23' W 003°00'0 0.0
2018-Jul-16 15:59N 53°23' W 003°00'0 0.0
2018-Jul-16 15:29N 53°23' W 003°00'0 0.0
2018-Jul-16 14:59N 53°23' W 003°00'0 0.0
2018-Jul-16 14:29N 53°23' W 003°00'0 0.0
2018-Jul-16 13:59N 53°23' W 003°00'0 0.0
2018-Jul-16 13:29N 53°23' W 003°00'0 0.0
2018-Jul-16 12:59N 53°23' W 003°00'0 0.0
2018-Jul-16 12:29N 53°23' W 003°00'0 0.0
2018-Jul-16 11:59N 53°23' W 003°00'0 0.0
2018-Jul-16 11:29N 53°23' W 003°00'0 0.0
2018-Jul-16 10:59N 53°23' W 003°00'0 0.0
2018-Jul-16 10:29N 53°23' W 003°00'0 0.0
2018-Jul-16 09:59N 53°23' W 003°00'0 0.0
2018-Jul-16 09:29N 53°23' W 003°00'0 0.0
2018-Jul-16 08:59N 53°23' W 003°00'0 0.0
2018-Jul-16 08:29N 53°23' W 003°00'0 0.0
2018-Jul-16 07:56N 53°23' W 003°00'0 0.0
2018-Jul-16 07:29N 53°23' W 003°00'0 0.0
2018-Jul-16 06:59N 53°23' W 003°00'0 0.0
2018-Jul-16 06:29N 53°23' W 003°00'0 0.0
2018-Jul-16 05:59N 53°23' W 003°00'0 0.0
2018-Jul-16 05:29N 53°23' W 003°00'0 0.0
2018-Jul-16 04:56N 53°23' W 003°00'0 0.0
2018-Jul-16 04:29N 53°23' W 003°00'0 0.0
2018-Jul-16 03:59N 53°23' W 003°00'0 0.0
2018-Jul-16 03:29N 53°23' W 003°00'0 0.0
2018-Jul-16 02:59N 53°23' W 003°00'0 0.0
2018-Jul-16 02:29N 53°23' W 003°00'0 0.0
2018-Jul-16 01:59N 53°23' W 003°00'0 0.0
2018-Jul-16 01:29N 53°23' W 003°00'0 0.0
2018-Jul-16 00:56N 53°23' W 003°00'0 0.0
2018-Jul-16 00:29N 53°23' W 003°00'0 0.0
2018-Jul-15 23:59N 53°23' W 003°00'0 0.0
2018-Jul-15 23:29N 53°23' W 003°00'0 0.0
2018-Jul-15 22:59N 53°23' W 003°00'0 0.0
2018-Jul-15 22:29N 53°23' W 003°00'0 0.0
2018-Jul-15 21:59N 53°23' W 003°00'0 0.0
2018-Jul-15 21:29N 53°23' W 003°00'0 0.0
2018-Jul-15 20:59N 53°23' W 003°00'0 0.0
2018-Jul-15 20:29N 53°23' W 003°00'0 0.0
2018-Jul-15 19:56N 53°23' W 003°00'0 0.0
2018-Jul-15 19:29N 53°23' W 003°00'0 0.0
2018-Jul-15 18:59N 53°23' W 003°00'0 0.0
2018-Jul-15 18:29N 53°23' W 003°00'0 0.0
2018-Jul-15 17:59N 53°23' W 003°00'0 0.0
2018-Jul-15 17:29N 53°23' W 003°00'0 0.0
2018-Jul-15 16:59N 53°23' W 003°00'0 0.0
2018-Jul-15 16:29N 53°23' W 003°00'0 0.0
2018-Jul-15 15:59N 53°23' W 003°00'0 0.0
2018-Jul-15 15:29N 53°23' W 003°00'0 0.0
2018-Jul-15 14:59N 53°23' W 003°00'0 0.0
2018-Jul-15 14:23N 53°23' W 003°00'0 0.0
2018-Jul-15 13:59N 53°23' W 003°00'0 0.0
2018-Jul-15 13:29N 53°23' W 003°00'0 0.0
2018-Jul-15 13:00N 53°23' W 003°00'1 2.5
2018-Jul-15 12:30N 53°24' W 003°00'4 7.2
2018-Jul-15 12:00N 53°27' W 003°03'4 9.0
2018-Jul-15 11:30N 53°31' W 003°07'4 8.5
2018-Jul-15 11:00N 53°31' W 003°14'510.3
2018-Jul-15 10:30N 53°32' W 003°23'5 9.7
2018-Jul-15 10:00N 53°31' W 003°31'4 8.5
2018-Jul-15 09:30N 53°31' W 003°38'510.6
2018-Jul-15 09:00N 53°30' W 003°47'510.5
2018-Jul-15 08:30N 53°29' W 003°55'5 9.6
2018-Jul-15 08:00N 53°28' W 004°03'710.4
2018-Jul-15 07:20N 53°27' W 004°15'4 5.1
2018-Jul-15 06:35N 53°25' W 004°09'0 0.2
2018-Jul-15 04:44N 53°25' W 004°10'0 0.0
2018-Jul-15 04:22N 53°25' W 004°10'0 0.0
2018-Jul-15 02:34N 53°25' W 004°10'0 0.0
2018-Jul-14 19:45N 53°25' W 004°10'0 0.1
2018-Jul-14 19:16N 53°25' W 004°10'0 0.1
2018-Jul-14 18:16N 53°25' W 004°10'0 0.1
2018-Jul-14 17:57N 53°25' W 004°10'0 0.2
2018-Jul-14 17:22N 53°25' W 004°10'0 0.1
2018-Jul-14 16:48N 53°25' W 004°10'0 0.0
2018-Jul-14 16:27N 53°25' W 004°10'0 0.0
2018-Jul-14 15:59N 53°25' W 004°10'0 0.0
2018-Jul-14 06:54N 53°25' W 004°10'0 0.1
2018-Jul-14 06:23N 53°25' W 004°10'0 0.3
2018-Jul-14 06:00N 53°25' W 004°10'0 0.2
2018-Jul-14 05:27N 53°25' W 004°10'0 0.1
2018-Jul-14 05:00N 53°25' W 004°10'0 0.0
2018-Jul-14 04:29N 53°25' W 004°10'0 0.0
2018-Jul-14 04:00N 53°25' W 004°10'0 0.0
2018-Jul-14 03:27N 53°25' W 004°10'0 0.0
2018-Jul-14 00:17N 53°25' W 004°10'0 0.1
2018-Jul-13 20:56N 53°25' W 004°10'0 0.1
2018-Jul-13 18:36N 53°25' W 004°10'0 2.5
2018-Jul-13 18:29N 53°25' W 004°10'510.6
2018-Jul-13 18:00N 53°27' W 004°17'612.1
2018-Jul-13 17:30N 53°29' W 004°27'39 9.3
2018-Jul-13 13:15N 52°56' W 005°04'511.3
2018-Jul-13 12:48N 52°52' W 005°07'511.6
2018-Jul-13 12:22N 52°47' W 005°11'512.1
2018-Jul-13 11:59N 52°43' W 005°14'1313.1
2018-Jul-13 10:59N 52°30' W 005°21'713.0
2018-Jul-13 10:29N 52°24' W 005°25'613.2
2018-Jul-13 10:00N 52°18' W 005°29'713.8
2018-Jul-13 09:30N 52°12' W 005°33'815.0
2018-Jul-13 09:00N 52°05' W 005°37'2314.7
2018-Jul-13 07:25N 51°43' W 005°50'913.7
2018-Jul-13 06:45N 51°34' W 005°54'413.5
2018-Jul-13 06:27N 51°30' W 005°56'613.3
2018-Jul-13 05:59N 51°24' W 005°59'21412.4
2018-Jul-12 12:43N 47°60' W 007°38'2613.4
2018-Jul-12 10:49N 47°36' W 007°50'50612.2
2018-Jul-10 17:20N 39°18' W 009°57'412.8
2018-Jul-10 17:00N 39°14' W 009°57'612.6
2018-Jul-10 16:30N 39°08' W 009°57'612.6
2018-Jul-10 16:00N 39°02' W 009°57'612.5
2018-Jul-10 15:30N 38°55' W 009°57'612.7
2018-Jul-10 15:00N 38°49' W 009°57'612.4
2018-Jul-10 14:31N 38°43' W 009°55'612.8
2018-Jul-10 14:00N 38°37' W 009°54'613.0
2018-Jul-10 13:31N 38°30' W 009°52'713.1
2018-Jul-10 13:01N 38°24' W 009°50'713.2
2018-Jul-10 12:30N 38°17' W 009°48'713.2
2018-Jul-10 12:01N 38°11' W 009°46'713.0
2018-Jul-10 11:30N 38°05' W 009°46'713.2
2018-Jul-10 11:00N 37°58' W 009°43'713.3
2018-Jul-10 10:30N 37°52' W 009°41'613.0
2018-Jul-10 10:01N 37°46' W 009°39'713.0
2018-Jul-10 09:30N 37°39' W 009°37'613.1
2018-Jul-10 09:00N 37°33' W 009°35'612.8
2018-Jul-10 08:31N 37°27' W 009°32'612.2
2018-Jul-10 08:00N 37°21' W 009°30'612.2
2018-Jul-10 07:31N 37°15' W 009°29'612.1
2018-Jul-10 07:01N 37°09' W 009°29'612.4
2018-Jul-10 06:30N 37°03' W 009°28'612.0
2018-Jul-10 06:00N 36°57' W 009°26'612.2
2018-Jul-10 05:31N 36°51' W 009°25'612.7
2018-Jul-10 05:00N 36°47' W 009°19'612.6
2018-Jul-10 04:31N 36°42' W 009°13'612.1
2018-Jul-10 04:00N 36°39' W 009°06'612.6
2018-Jul-10 03:31N 36°38' W 008°59'712.5
2018-Jul-10 02:57N 36°36' W 008°50'612.3
2018-Jul-10 02:30N 36°35' W 008°44'1012.5
2018-Jul-10 01:44N 36°33' W 008°32'612.4
2018-Jul-10 01:16N 36°31' W 008°25'512.2
2018-Jul-10 00:52N 36°30' W 008°19'2512.3
2018-Jul-09 22:50N 36°22' W 007°50'412.6
2018-Jul-09 22:29N 36°21' W 007°45'612.5
2018-Jul-09 22:01N 36°19' W 007°37'612.6
2018-Jul-09 21:30N 36°17' W 007°30'712.6
2018-Jul-09 20:57N 36°16' W 007°22'712.7
2018-Jul-09 20:22N 36°14' W 007°13'512.6
2018-Jul-09 19:57N 36°13' W 007°06'612.7
2018-Jul-09 19:30N 36°11' W 006°60'6911.6
2018-Jul-09 13:32N 35°58' W 005°36'0 9.9
2018-Jul-09 13:30N 35°58' W 005°35'510.5
2018-Jul-09 13:00N 35°59' W 005°29'510.9
2018-Jul-09 12:30N 36°00' W 005°23'510.6
2018-Jul-09 12:00N 36°01' W 005°16'  
Track history (hours):
 
Tides and Currents Weather Stations Pressure Air Temp Water Temp Dewpoint Dewpoint Depression Visibility Wind Speed Wind Dir Waves Ship Positions

British Tradition

Last reported at 2018-Jul-18 05:13 UTC. Time now 2018-Jul-20 14:30 UTC.
Position N 55°52' W 006°59'.

Length 274 m; draft 9.8 m.

Type: Ship. MMSI: 235108541.

Date/timePositionNaut miles runAvg speedWind from/ knotsBaromVisibWave heightAir tempDewpointWater temp
2018-Jul-18 05:13N 55°52' W 006°59'313.9
2018-Jul-18 05:00N 55°50' W 006°56'714.2
2018-Jul-18 04:30N 55°45' W 006°47'815.1
2018-Jul-18 04:00N 55°40' W 006°37'714.4
2018-Jul-18 03:30N 55°35' W 006°27'613.2
2018-Jul-18 03:00N 55°30' W 006°20'611.6
2018-Jul-18 02:30N 55°26' W 006°12'611.3
2018-Jul-18 02:00N 55°25' W 006°03'510.5
2018-Jul-18 01:30N 55°20' W 005°57'5 9.3
2018-Jul-18 01:00N 55°17' W 005°53'4 9.0
2018-Jul-18 00:30N 55°13' W 005°48'5 9.8
2018-Jul-18 00:00N 55°09' W 005°43'510.2
2018-Jul-17 23:30N 55°05' W 005°38'610.4
2018-Jul-17 22:57N 55°00' W 005°32'510.6
2018-Jul-17 22:30N 54°56' W 005°27'510.9
2018-Jul-17 22:00N 54°52' W 005°22'611.1
2018-Jul-17 21:30N 54°47' W 005°16'611.5
2018-Jul-17 21:00N 54°42' W 005°14'612.2
2018-Jul-17 20:30N 54°36' W 005°12'612.2
2018-Jul-17 20:00N 54°30' W 005°08'612.1
2018-Jul-17 19:30N 54°24' W 005°06'612.7
2018-Jul-17 19:00N 54°18' W 005°03'612.9
2018-Jul-17 18:30N 54°12' W 005°00'713.1
2018-Jul-17 18:00N 54°05' W 004°57'713.9
2018-Jul-17 17:29N 53°59' W 004°51'2413.1
2018-Jul-17 15:39N 53°46' W 004°16'512.7
2018-Jul-17 15:15N 53°44' W 004°09'1012.3
2018-Jul-17 14:26N 53°38' W 003°54'511.6
2018-Jul-17 13:59N 53°36' W 003°47'510.3
2018-Jul-17 13:30N 53°33' W 003°39'510.4
2018-Jul-17 13:00N 53°33' W 003°31'510.3
2018-Jul-17 12:30N 53°33' W 003°22'3 6.2
2018-Jul-17 12:00N 53°32' W 003°17'4 7.8
2018-Jul-17 11:30N 53°32' W 003°11'4 8.7
2018-Jul-17 11:00N 53°29' W 003°05'5 9.9
2018-Jul-17 10:30N 53°25' W 003°00'2 3.5
2018-Jul-17 09:58N 53°23' W 003°00'0 0.0
2018-Jul-17 09:28N 53°23' W 003°00'0 0.0
2018-Jul-17 08:58N 53°23' W 003°00'0 0.0
2018-Jul-17 08:22N 53°23' W 003°00'0 0.0
2018-Jul-17 07:56N 53°23' W 003°00'0 0.0
2018-Jul-17 07:28N 53°23' W 003°00'0 0.0
2018-Jul-17 06:58N 53°23' W 003°00'0 0.0
2018-Jul-17 06:28N 53°23' W 003°00'0 0.0
2018-Jul-17 05:58N 53°23' W 003°00'0 0.0
2018-Jul-17 05:28N 53°23' W 003°00'0 0.0
2018-Jul-17 04:59N 53°23' W 003°00'0 0.0
2018-Jul-17 04:29N 53°23' W 003°00'0 0.0
2018-Jul-17 03:59N 53°23' W 003°00'0 0.0
2018-Jul-17 03:29N 53°23' W 003°00'0 0.0
2018-Jul-17 02:59N 53°23' W 003°00'0 0.0
2018-Jul-17 02:29N 53°23' W 003°00'0 0.0
2018-Jul-17 01:53N 53°23' W 003°00'0 0.0
2018-Jul-17 01:29N 53°23' W 003°00'0 0.0
2018-Jul-17 00:56N 53°23' W 003°00'0 0.0
2018-Jul-17 00:29N 53°23' W 003°00'0 0.0
2018-Jul-16 23:29N 53°23' W 003°00'0 0.0
2018-Jul-16 22:59N 53°23' W 003°00'0 0.0
2018-Jul-16 22:29N 53°23' W 003°00'0 0.0
2018-Jul-16 21:59N 53°23' W 003°00'0 0.0
2018-Jul-16 21:29N 53°23' W 003°00'0 0.0
2018-Jul-16 20:59N 53°23' W 003°00'0 0.0
2018-Jul-16 20:29N 53°23' W 003°00'0 0.0
2018-Jul-16 19:59N 53°23' W 003°00'0 0.0
2018-Jul-16 19:29N 53°23' W 003°00'0 0.0
2018-Jul-16 18:59N 53°23' W 003°00'0 0.0
2018-Jul-16 18:29N 53°23' W 003°00'0 0.0
2018-Jul-16 17:59N 53°23' W 003°00'0 0.0
2018-Jul-16 17:29N 53°23' W 003°00'0 0.0
2018-Jul-16 16:59N 53°23' W 003°00'0 0.0
2018-Jul-16 16:29N 53°23' W 003°00'0 0.0
2018-Jul-16 15:59N 53°23' W 003°00'0 0.0
2018-Jul-16 15:29N 53°23' W 003°00'0 0.0
2018-Jul-16 14:59N 53°23' W 003°00'0 0.0
2018-Jul-16 14:29N 53°23' W 003°00'0 0.0
2018-Jul-16 13:59N 53°23' W 003°00'0 0.0
2018-Jul-16 13:29N 53°23' W 003°00'0 0.0
2018-Jul-16 12:59N 53°23' W 003°00'0 0.0
2018-Jul-16 12:29N 53°23' W 003°00'0 0.0
2018-Jul-16 11:59N 53°23' W 003°00'0 0.0
2018-Jul-16 11:29N 53°23' W 003°00'0 0.0
2018-Jul-16 10:59N 53°23' W 003°00'0 0.0
2018-Jul-16 10:29N 53°23' W 003°00'0 0.0
2018-Jul-16 09:59N 53°23' W 003°00'0 0.0
2018-Jul-16 09:29N 53°23' W 003°00'0 0.0
2018-Jul-16 08:59N 53°23' W 003°00'0 0.0
2018-Jul-16 08:29N 53°23' W 003°00'0 0.0
2018-Jul-16 07:56N 53°23' W 003°00'0 0.0
2018-Jul-16 07:29N 53°23' W 003°00'0 0.0
2018-Jul-16 06:59N 53°23' W 003°00'0 0.0
2018-Jul-16 06:29N 53°23' W 003°00'0 0.0
2018-Jul-16 05:59N 53°23' W 003°00'0 0.0
2018-Jul-16 05:29N 53°23' W 003°00'0 0.0
2018-Jul-16 04:56N 53°23' W 003°00'0 0.0
2018-Jul-16 04:29N 53°23' W 003°00'0 0.0
2018-Jul-16 03:59N 53°23' W 003°00'0 0.0
2018-Jul-16 03:29N 53°23' W 003°00'0 0.0
2018-Jul-16 02:59N 53°23' W 003°00'0 0.0
2018-Jul-16 02:29N 53°23' W 003°00'0 0.0
2018-Jul-16 01:59N 53°23' W 003°00'0 0.0
2018-Jul-16 01:29N 53°23' W 003°00'0 0.0
2018-Jul-16 00:56N 53°23' W 003°00'0 0.0
2018-Jul-16 00:29N 53°23' W 003°00'0 0.0
2018-Jul-15 23:59N 53°23' W 003°00'0 0.0
2018-Jul-15 23:29N 53°23' W 003°00'0 0.0
2018-Jul-15 22:59N 53°23' W 003°00'0 0.0
2018-Jul-15 22:29N 53°23' W 003°00'0 0.0
2018-Jul-15 21:59N 53°23' W 003°00'0 0.0
2018-Jul-15 21:29N 53°23' W 003°00'0 0.0
2018-Jul-15 20:59N 53°23' W 003°00'0 0.0
2018-Jul-15 20:29N 53°23' W 003°00'0 0.0
2018-Jul-15 19:56N 53°23' W 003°00'0 0.0
2018-Jul-15 19:29N 53°23' W 003°00'0 0.0
2018-Jul-15 18:59N 53°23' W 003°00'0 0.0
2018-Jul-15 18:29N 53°23' W 003°00'0 0.0
2018-Jul-15 17:59N 53°23' W 003°00'0 0.0
2018-Jul-15 17:29N 53°23' W 003°00'0 0.0
2018-Jul-15 16:59N 53°23' W 003°00'0 0.0
2018-Jul-15 16:29N 53°23' W 003°00'0 0.0
2018-Jul-15 15:59N 53°23' W 003°00'0 0.0
2018-Jul-15 15:29N 53°23' W 003°00'0 0.0
2018-Jul-15 14:59N 53°23' W 003°00'0 0.0
2018-Jul-15 14:23N 53°23' W 003°00'0 0.0
2018-Jul-15 13:59N 53°23' W 003°00'0 0.0
2018-Jul-15 13:29N 53°23' W 003°00'0 0.0
2018-Jul-15 13:00N 53°23' W 003°00'1 2.5
2018-Jul-15 12:30N 53°24' W 003°00'4 7.2
2018-Jul-15 12:00N 53°27' W 003°03'4 9.0
2018-Jul-15 11:30N 53°31' W 003°07'4 8.5
2018-Jul-15 11:00N 53°31' W 003°14'510.3
2018-Jul-15 10:30N 53°32' W 003°23'5 9.7
2018-Jul-15 10:00N 53°31' W 003°31'4 8.5
2018-Jul-15 09:30N 53°31' W 003°38'510.6
2018-Jul-15 09:00N 53°30' W 003°47'510.5
2018-Jul-15 08:30N 53°29' W 003°55'5 9.6
2018-Jul-15 08:00N 53°28' W 004°03'710.4
2018-Jul-15 07:20N 53°27' W 004°15'4 5.1
2018-Jul-15 06:35N 53°25' W 004°09'0 0.2
2018-Jul-15 04:44N 53°25' W 004°10'0 0.0
2018-Jul-15 04:22N 53°25' W 004°10'0 0.0
2018-Jul-15 02:34N 53°25' W 004°10'0 0.0
2018-Jul-14 19:45N 53°25' W 004°10'0 0.1
2018-Jul-14 19:16N 53°25' W 004°10'0 0.1
2018-Jul-14 18:16N 53°25' W 004°10'0 0.1
2018-Jul-14 17:57N 53°25' W 004°10'0 0.2
2018-Jul-14 17:22N 53°25' W 004°10'0 0.1
2018-Jul-14 16:48N 53°25' W 004°10'0 0.0
2018-Jul-14 16:27N 53°25' W 004°10'0 0.0
2018-Jul-14 15:59N 53°25' W 004°10'0 0.0
2018-Jul-14 06:54N 53°25' W 004°10'0 0.1
2018-Jul-14 06:23N 53°25' W 004°10'0 0.3
2018-Jul-14 06:00N 53°25' W 004°10'0 0.2
2018-Jul-14 05:27N 53°25' W 004°10'0 0.1
2018-Jul-14 05:00N 53°25' W 004°10'0 0.0
2018-Jul-14 04:29N 53°25' W 004°10'0 0.0
2018-Jul-14 04:00N 53°25' W 004°10'0 0.0
2018-Jul-14 03:27N 53°25' W 004°10'0 0.0
2018-Jul-14 00:17N 53°25' W 004°10'0 0.1
2018-Jul-13 20:56N 53°25' W 004°10'0 0.1
2018-Jul-13 18:36N 53°25' W 004°10'0 2.5
2018-Jul-13 18:29N 53°25' W 004°10'510.6
2018-Jul-13 18:00N 53°27' W 004°17'612.1
2018-Jul-13 17:30N 53°29' W 004°27'39 9.3
2018-Jul-13 13:15N 52°56' W 005°04'511.3
2018-Jul-13 12:48N 52°52' W 005°07'511.6
2018-Jul-13 12:22N 52°47' W 005°11'512.1
2018-Jul-13 11:59N 52°43' W 005°14'1313.1
2018-Jul-13 10:59N 52°30' W 005°21'713.0
2018-Jul-13 10:29N 52°24' W 005°25'613.2
2018-Jul-13 10:00N 52°18' W 005°29'713.8
2018-Jul-13 09:30N 52°12' W 005°33'815.0
2018-Jul-13 09:00N 52°05' W 005°37'2314.7
2018-Jul-13 07:25N 51°43' W 005°50'913.7
2018-Jul-13 06:45N 51°34' W 005°54'413.5
2018-Jul-13 06:27N 51°30' W 005°56'613.3
2018-Jul-13 05:59N 51°24' W 005°59'21412.4
2018-Jul-12 12:43N 47°60' W 007°38'2613.4
2018-Jul-12 10:49N 47°36' W 007°50'50612.2
2018-Jul-10 17:20N 39°18' W 009°57'412.8
2018-Jul-10 17:00N 39°14' W 009°57'612.6
2018-Jul-10 16:30N 39°08' W 009°57'612.6
2018-Jul-10 16:00N 39°02' W 009°57'612.5
2018-Jul-10 15:30N 38°55' W 009°57'612.7
2018-Jul-10 15:00N 38°49' W 009°57'612.4
2018-Jul-10 14:31N 38°43' W 009°55'612.8
2018-Jul-10 14:00N 38°37' W 009°54'613.0
2018-Jul-10 13:31N 38°30' W 009°52'713.1
2018-Jul-10 13:01N 38°24' W 009°50'713.2
2018-Jul-10 12:30N 38°17' W 009°48'713.2
2018-Jul-10 12:01N 38°11' W 009°46'713.0
2018-Jul-10 11:30N 38°05' W 009°46'713.2
2018-Jul-10 11:00N 37°58' W 009°43'713.3
2018-Jul-10 10:30N 37°52' W 009°41'613.0
2018-Jul-10 10:01N 37°46' W 009°39'713.0
2018-Jul-10 09:30N 37°39' W 009°37'613.1
2018-Jul-10 09:00N 37°33' W 009°35'612.8
2018-Jul-10 08:31N 37°27' W 009°32'612.2
2018-Jul-10 08:00N 37°21' W 009°30'612.2
2018-Jul-10 07:31N 37°15' W 009°29'612.1
2018-Jul-10 07:01N 37°09' W 009°29'612.4
2018-Jul-10 06:30N 37°03' W 009°28'612.0
2018-Jul-10 06:00N 36°57' W 009°26'612.2
2018-Jul-10 05:31N 36°51' W 009°25'612.7
2018-Jul-10 05:00N 36°47' W 009°19'612.6
2018-Jul-10 04:31N 36°42' W 009°13'612.1
2018-Jul-10 04:00N 36°39' W 009°06'612.6
2018-Jul-10 03:31N 36°38' W 008°59'712.5
2018-Jul-10 02:57N 36°36' W 008°50'612.3
2018-Jul-10 02:30N 36°35' W 008°44'1012.5
2018-Jul-10 01:44N 36°33' W 008°32'612.4
2018-Jul-10 01:16N 36°31' W 008°25'512.2
2018-Jul-10 00:52N 36°30' W 008°19'2512.3
2018-Jul-09 22:50N 36°22' W 007°50'412.6
2018-Jul-09 22:29N 36°21' W 007°45'612.5
2018-Jul-09 22:01N 36°19' W 007°37'612.6
2018-Jul-09 21:30N 36°17' W 007°30'712.6
2018-Jul-09 20:57N 36°16' W 007°22'712.7
2018-Jul-09 20:22N 36°14' W 007°13'512.6
2018-Jul-09 19:57N 36°13' W 007°06'612.7
2018-Jul-09 19:30N 36°11' W 006°60'6911.6
2018-Jul-09 13:32N 35°58' W 005°36'0 9.9
2018-Jul-09 13:30N 35°58' W 005°35'510.5
2018-Jul-09 13:00N 35°59' W 005°29'510.9
2018-Jul-09 12:30N 36°00' W 005°23'510.6
2018-Jul-09 12:00N 36°01' W 005°16'  

Dump ship's entire track history